Time;durP1;ratioP1;P1;durP2;ratioP2;P2;SDS_P1;SDS_P2;PMS_P1;PMS_P2;Temp;Humidity;BMP_temperature;BMP_pressure;BME280_temperature;BME280_humidity;BME280_pressure;Samples;Min_cycle;Max_cycle;Signal;HPM_P1;HPM_P2
2022/01/20 00:02:01;;;;;;;0.10;0.10;;;3.80;99.90;;;3.61;100.00;101128.72;4896740;29;20726;-81
2022/01/20 00:04:42;;;;;;;0.20;0.20;;;3.80;99.90;;;3.61;100.00;101127.81;4896882;29;20222;-80
2022/01/20 00:26:57;;;;;;;0.10;0.10;;;3.90;99.90;;;3.64;100.00;101135.81;4919929;29;20722;-81
2022/01/20 00:29:29;;;;;;;0.20;0.20;;;3.80;99.90;;;3.65;100.00;101143.72;4896944;29;20219;-80
2022/01/20 00:32:11;;;;;;;0.20;0.20;;;3.80;99.90;;;3.69;100.00;101147.38;4899324;29;20219;-80
2022/01/20 00:35:08;;;;;;;0.10;0.10;;;3.80;99.90;;;3.71;100.00;101157.09;4917227;29;20219;-81
2022/01/20 00:37:31;;;;;;;0.10;0.10;;;3.90;99.90;;;3.71;100.00;101153.59;4901189;29;20227;-80
2022/01/20 00:40:00;;;;;;;0.10;0.10;;;3.90;99.90;;;3.67;100.00;101159.50;4898660;29;20222;-80
2022/01/20 00:42:28;;;;;;;0.20;0.20;;;3.90;99.90;;;3.69;100.00;101163.06;4899831;29;20686;-81
2022/01/20 00:44:56;;;;;;;0.10;0.10;;;3.90;99.90;;;3.72;100.00;101153.66;4884863;29;20211;-81
2022/01/20 00:47:24;;;;;;;0.10;0.10;;;3.90;99.90;;;3.70;100.00;101150.06;4870913;29;20238;-80
2022/01/20 00:49:52;;;;;;;0.10;0.10;;;3.90;99.90;;;3.71;100.00;101146.63;4913630;29;20207;-80
2022/01/20 00:52:19;;;;;;;0.10;0.10;;;3.90;99.90;;;3.66;100.00;101142.91;4878589;29;20204;-81
2022/01/20 00:54:48;;;;;;;0.20;0.20;;;3.90;99.90;;;3.67;100.00;101152.53;4896614;29;20204;-80
2022/01/20 00:57:18;;;;;;;0.13;0.13;;;3.90;99.90;;;3.73;100.00;101165.91;4881462;29;20235;-81
2022/01/20 00:59:48;;;;;;;0.20;0.20;;;3.90;99.90;;;3.69;100.00;101158.75;4911385;29;20208;-81
2022/01/20 01:02:16;;;;;;;0.10;0.10;;;3.90;99.90;;;3.66;100.00;101150.75;4871358;29;20228;-81
2022/01/20 01:04:44;;;;;;;0.20;0.20;;;3.90;99.90;;;3.67;100.00;101165.63;4899220;29;20203;-81
2022/01/20 01:07:39;;;;;;;0.10;0.10;;;3.90;99.90;;;3.66;100.00;101161.22;4898314;29;20239;-80
2022/01/20 01:10:09;;;;;;;0.20;0.20;;;3.90;99.90;;;3.64;100.00;101155.00;4891866;29;20285;-81
2022/01/20 01:12:48;;;;;;;0.10;0.10;;;3.80;99.90;;;3.63;100.00;101149.72;4896289;29;20211;-81
2022/01/20 01:15:26;;;;;;;0.20;0.20;;;3.80;99.90;;;3.62;100.00;101151.44;4894697;29;20212;-81
2022/01/20 01:21:10;;;;;;;0.65;0.65;;;3.80;99.90;;;3.58;100.00;101145.97;4899096;29;20222;-81
2022/01/20 01:23:36;;;;;;;0.20;0.20;;;3.80;99.90;;;3.60;100.00;101155.69;4899639;29;20232;-81
2022/01/20 01:26:07;;;;;;;0.10;0.10;;;3.80;99.90;;;3.60;100.00;101157.41;4913859;29;20215;-81
2022/01/20 01:28:36;;;;;;;0.17;0.17;;;3.80;99.90;;;3.63;100.00;101166.28;4874542;23;20317;-79
2022/01/20 01:33:50;;;;;;;0.20;0.20;;;3.80;99.90;;;3.56;100.00;101161.59;4874150;29;20219;-79
2022/01/20 01:36:20;;;;;;;0.10;0.10;;;3.80;99.90;;;3.57;100.00;101173.84;4850991;29;20211;-79
2022/01/20 01:38:50;;;;;;;0.10;0.10;;;3.80;99.90;;;3.60;100.00;101165.25;4858932;29;20232;-79
2022/01/20 01:41:33;;;;;;;0.10;0.10;;;3.80;99.90;;;3.65;100.00;101179.44;4856336;29;20213;-79
2022/01/20 01:44:07;;;;;;;0.15;0.15;;;3.80;99.90;;;3.66;100.00;101171.69;4869945;29;20205;-80
2022/01/20 01:46:37;;;;;;;0.10;0.10;;;3.80;99.90;;;3.65;100.00;101175.13;4869548;29;20213;-82
2022/01/20 01:49:06;;;;;;;0.10;0.10;;;3.80;99.90;;;3.62;100.00;101174.06;4867905;29;20205;-79
2022/01/20 01:51:38;;;;;;;0.10;0.10;;;3.80;99.90;;;3.62;100.00;101180.19;4869185;29;20210;-79
2022/01/20 01:54:06;;;;;;;0.10;0.10;;;3.80;99.90;;;3.59;100.00;101180.03;4869168;29;20205;-80
2022/01/20 01:56:37;;;;;;;0.10;0.10;;;3.80;99.90;;;3.60;100.00;101174.00;4853782;29;20208;-80
2022/01/20 01:59:10;;;;;;;0.10;0.10;;;3.80;99.90;;;3.58;100.00;101172.13;4868894;29;20222;-79
2022/01/20 02:01:50;;;;;;;0.20;0.20;;;3.80;99.90;;;3.53;100.00;101164.94;4856994;29;20221;-80
2022/01/20 02:04:21;;;;;;;0.17;0.17;;;3.80;99.90;;;3.51;100.00;101177.06;4861187;29;20680;-80
2022/01/20 02:18:43;;;;;;;0.10;0.10;;;3.60;99.90;;;3.34;100.00;101179.66;4873279;29;20250;-80
2022/01/20 02:21:30;;;;;;;0.10;0.10;;;3.60;99.90;;;3.30;100.00;101181.22;4857934;29;20223;-79
2022/01/20 02:24:01;;;;;;;0.10;0.10;;;3.60;99.90;;;3.28;100.00;101187.19;4872407;29;20240;-80
2022/01/20 02:26:29;;;;;;;0.10;0.10;;;3.50;99.90;;;3.30;100.00;101194.31;4853912;29;20204;-80
2022/01/20 02:28:59;;;;;;;0.10;0.10;;;3.50;99.90;;;3.34;100.00;101197.97;4852545;29;20209;-79
2022/01/20 02:31:27;;;;;;;0.10;0.10;;;3.50;99.90;;;3.33;100.00;101191.84;4870666;29;20209;-80
2022/01/20 02:33:57;;;;;;;0.10;0.10;;;3.50;99.90;;;3.37;100.00;101191.16;4871472;29;20239;-79
2022/01/20 02:36:28;;;;;;;0.10;0.10;;;3.50;99.90;;;3.35;100.00;101186.69;4870876;29;20212;-79
2022/01/20 02:39:09;;;;;;;0.10;0.10;;;3.60;99.90;;;3.37;100.00;101192.88;4855295;29;20216;-79
2022/01/20 02:47:18;;;;;;;0.10;0.10;;;3.50;99.90;;;3.33;100.00;101184.00;4874966;29;20599;-79
2022/01/20 02:49:47;;;;;;;0.10;0.10;;;3.60;99.90;;;3.28;100.00;101184.59;4855991;29;20217;-79
2022/01/20 02:52:15;;;;;;;0.10;0.10;;;3.50;99.90;;;3.34;100.00;101192.72;4858881;29;20204;-79
2022/01/20 02:54:43;;;;;;;0.10;0.10;;;3.50;99.90;;;3.21;100.00;101183.38;4861125;29;20213;-80
2022/01/20 02:57:12;;;;;;;0.10;0.10;;;3.50;99.90;;;3.15;100.00;101190.91;4872351;29;20579;-79
2022/01/20 02:59:40;;;;;;;0.10;0.10;;;3.50;99.90;;;3.15;100.00;101189.19;4861194;29;20212;-82
2022/01/20 03:02:09;;;;;;;0.10;0.10;;;3.40;99.90;;;3.14;100.00;101191.72;4854922;29;20216;-80
2022/01/20 03:04:39;;;;;;;0.10;0.10;;;3.40;99.90;;;3.22;100.00;101196.53;4854508;29;20204;-80
2022/01/20 03:07:20;;;;;;;0.10;0.10;;;3.40;99.90;;;3.17;100.00;101197.13;4873652;29;20232;-81
2022/01/20 03:09:48;;;;;;;0.10;0.10;;;3.40;99.90;;;3.17;100.00;101202.34;4859069;29;20215;-79
2022/01/20 03:12:16;;;;;;;0.10;0.10;;;3.40;99.90;;;3.16;100.00;101191.00;4859285;29;20212;-80
2022/01/20 03:14:44;;;;;;;0.10;0.10;;;3.40;99.90;;;3.19;100.00;101191.16;4844451;29;20499;-80
2022/01/20 03:17:38;;;;;;;0.10;0.10;;;3.40;99.90;;;3.16;100.00;101188.38;4860873;29;20244;-85
2022/01/20 03:20:09;;;;;;;0.10;0.10;;;3.40;99.90;;;3.20;100.00;101186.81;4861734;29;20217;-80
2022/01/20 03:22:37;;;;;;;0.10;0.10;;;3.40;99.90;;;3.17;100.00;101178.81;4863613;29;20230;-79
2022/01/20 03:25:06;;;;;;;0.10;0.10;;;3.40;99.90;;;3.16;100.00;101188.38;4862842;29;20211;-80
2022/01/20 03:27:34;;;;;;;0.20;0.20;;;3.40;99.90;;;3.17;100.00;101190.16;4844366;29;20263;-79
2022/01/20 03:30:03;;;;;;;0.10;0.10;;;3.40;99.90;;;3.15;100.00;101177.84;4860968;29;20204;-80
2022/01/20 03:32:33;;;;;;;0.10;0.10;;;3.40;99.90;;;3.18;100.00;101175.38;4858779;29;20216;-81
2022/01/20 03:35:07;;;;;;;0.10;0.10;;;3.40;99.90;;;3.13;100.00;101169.03;4864908;29;20216;-80
2022/01/20 03:37:36;;;;;;;0.10;0.10;;;3.40;99.90;;;3.12;100.00;101177.69;4858054;29;20235;-80
2022/01/20 03:40:07;;;;;;;0.10;0.10;;;3.30;99.90;;;3.09;100.00;101180.16;4859538;29;20221;-81
2022/01/20 03:42:36;;;;;;;0.10;0.10;;;3.30;99.90;;;3.02;100.00;101171.09;4844372;29;20220;-79
2022/01/20 03:45:07;;;;;;;0.10;0.10;;;3.30;99.90;;;2.94;100.00;101161.09;4844372;29;20225;-79
2022/01/20 03:47:35;;;;;;;0.10;0.10;;;3.30;99.90;;;2.85;100.00;101165.00;4873964;29;20616;-79
2022/01/20 03:52:32;;;;;;;0.10;0.10;;;3.20;99.90;;;2.88;100.00;101179.94;4857830;29;20209;-80
2022/01/20 03:55:02;;;;;;;0.20;0.20;;;3.20;99.90;;;2.97;100.00;101179.53;4843171;29;20213;-80
2022/01/20 03:57:50;;;;;;;0.10;0.10;;;3.20;99.90;;;2.94;100.00;101184.59;4874907;29;20247;-80
2022/01/20 04:00:24;;;;;;;0.10;0.10;;;3.20;99.90;;;3.03;100.00;101198.13;4872785;29;20217;-80
2022/01/20 04:03:15;;;;;;;0.20;0.20;;;3.20;99.90;;;2.98;100.00;101191.78;4883394;29;20229;-80
2022/01/20 04:06:00;;;;;;;0.20;0.20;;;3.20;99.90;;;3.06;100.00;101200.91;4868692;29;20208;-80
2022/01/20 04:08:39;;;;;;;0.10;0.10;;;3.20;99.90;;;3.10;100.00;101208.06;4857815;29;20229;-80
2022/01/20 04:11:14;;;;;;;0.10;0.10;;;3.20;99.90;;;3.19;100.00;101216.38;4858409;29;20224;-80
2022/01/20 04:13:44;;;;;;;0.10;0.10;;;3.20;99.90;;;3.18;100.00;101206.75;4890776;29;20227;-79
2022/01/20 04:19:27;;;;;;;0.10;0.10;;;3.30;99.90;;;3.16;100.00;101203.16;4869801;29;20231;-79
2022/01/20 04:21:57;;;;;;;0.20;0.20;;;3.30;99.90;;;3.08;100.00;101192.31;4877948;29;20216;-79
2022/01/20 04:24:26;;;;;;;0.20;0.20;;;3.30;99.90;;;2.91;100.00;101174.88;4856518;29;20248;-79
2022/01/20 04:26:54;;;;;;;0.17;0.17;;;3.20;99.90;;;2.92;100.00;101178.41;4866575;29;20236;-79
2022/01/20 04:29:23;;;;;;;0.93;0.93;;;3.20;99.90;;;2.85;100.00;101170.25;4881006;29;20211;-79
2022/01/20 04:31:51;;;;;;;0.10;0.10;;;3.10;99.90;;;2.87;100.00;101167.72;4881590;29;20214;-79
2022/01/20 04:34:20;;;;;;;0.20;0.20;;;3.10;99.90;;;2.75;100.00;101157.53;4875088;29;20208;-79
2022/01/20 04:36:53;;;;;;;0.10;0.10;;;3.10;99.90;;;2.79;100.00;101159.47;4875093;29;20229;-80
2022/01/20 04:39:24;;;;;;;0.10;0.10;;;3.00;99.90;;;2.76;100.00;101164.53;4866268;29;20213;-79
2022/01/20 04:41:54;;;;;;;0.10;0.10;;;3.00;99.90;;;2.68;100.00;101155.41;4875685;29;20227;-79
2022/01/20 04:47:17;;;;;;;0.10;0.10;;;2.90;99.90;;;2.54;100.00;101136.38;4887824;29;20220;-80
2022/01/20 04:58:07;;;;;;;0.20;0.20;;;2.70;99.90;;;2.72;100.00;101164.31;4870844;29;20243;-79
2022/01/20 05:00:37;;;;;;;0.20;0.20;;;2.80;99.90;;;2.80;100.00;101158.66;4866093;29;20212;-79
2022/01/20 05:03:24;;;;;;;0.10;0.10;;;2.80;99.90;;;3.04;100.00;101159.00;4881236;29;20225;-80
2022/01/20 05:05:55;;;;;;;0.10;0.10;;;2.90;99.90;;;2.97;100.00;101124.66;4883190;29;20224;-80
2022/01/20 05:08:25;;;;;;;0.20;0.20;;;3.00;99.90;;;2.90;100.00;101110.38;4865058;29;20224;-80
2022/01/20 05:11:01;;;;;;;0.10;0.10;;;3.00;99.90;;;2.99;100.00;101123.00;4850134;29;20215;-79
2022/01/20 05:13:36;;;;;;;0.10;0.10;;;3.00;99.90;;;2.91;100.00;101109.56;4876830;29;20692;-79
2022/01/20 05:16:05;;;;;;;0.10;0.10;;;3.00;99.90;;;2.64;100.00;101067.28;4877828;29;20212;-80
2022/01/20 05:18:33;;;;;;;0.20;0.20;;;3.00;99.90;;;2.61;100.00;101074.06;4865772;29;20227;-80
2022/01/20 05:21:02;;;;;;;0.20;0.20;;;2.90;99.90;;;2.63;100.00;101090.72;4868703;29;20209;-80
2022/01/20 05:23:32;;;;;;;0.20;0.20;;;2.80;99.90;;;2.47;100.00;101057.66;4866573;29;20209;-80
2022/01/20 05:26:05;;;;;;;0.10;0.10;;;2.80;99.90;;;2.58;100.00;101085.22;4893641;29;20215;-79
2022/01/20 05:28:33;;;;;;;0.17;0.17;;;2.80;99.90;;;2.67;100.00;101096.16;4884943;29;20631;-79
2022/01/20 05:31:02;;;;;;;0.20;0.20;;;2.80;99.90;;;2.43;100.00;101068.75;4879952;29;20208;-80
2022/01/20 05:33:38;;;;;;;0.10;0.10;;;2.70;99.90;;;2.40;100.00;101089.50;4871095;29;20205;-80
2022/01/20 05:36:06;;;;;;;0.20;0.20;;;2.70;99.90;;;2.37;100.00;101091.94;4866369;29;20205;-80
2022/01/20 05:38:34;;;;;;;0.20;0.20;;;2.60;99.90;;;2.34;100.00;101099.63;4866057;29;20692;-80
2022/01/20 05:41:04;;;;;;;0.20;0.20;;;2.60;99.90;;;2.29;100.00;101088.94;4865829;29;20239;-80
2022/01/20 05:43:33;;;;;;;0.20;0.20;;;2.60;99.90;;;2.33;100.00;101106.53;4866146;29;20217;-80
2022/01/20 05:46:04;;;;;;;0.20;0.20;;;2.50;99.90;;;2.37;100.00;101113.72;4881527;29;20205;-80
2022/01/20 05:48:36;;;;;;;0.10;0.10;;;2.50;99.90;;;2.25;100.00;101089.59;4865240;29;20232;-80
2022/01/20 05:51:13;;;;;;;0.10;0.10;;;2.50;99.90;;;1.99;100.00;101069.06;4873394;29;20216;-80
2022/01/20 05:53:42;;;;;;;0.10;0.10;;;2.40;99.90;;;2.30;100.00;101129.88;4864633;29;20209;-80
2022/01/20 05:56:10;;;;;;;0.20;0.20;;;2.40;99.90;;;2.40;100.00;101154.75;4864325;29;20209;-79
2022/01/20 05:58:40;;;;;;;0.10;0.10;;;2.50;99.90;;;2.31;100.00;101134.28;4862835;29;20248;-79
2022/01/20 06:01:12;;;;;;;0.20;0.20;;;2.50;99.90;;;2.02;100.00;101104.03;4868909;29;20209;-80
2022/01/20 06:03:40;;;;;;;0.10;0.10;;;2.40;99.90;;;2.03;100.00;101115.34;4863590;29;20212;-79
2022/01/20 06:06:14;;;;;;;0.20;0.20;;;2.30;99.90;;;2.11;100.00;101128.00;4862970;29;20208;-78
2022/01/20 06:08:44;;;;;;;0.20;0.20;;;2.30;99.90;;;2.32;100.00;101163.88;4862964;29;20224;-79
2022/01/20 06:11:15;;;;;;;0.20;0.20;;;2.30;99.90;;;2.30;100.00;101163.81;4864927;29;20200;-78
2022/01/20 06:13:44;;;;;;;0.10;0.10;;;2.40;99.90;;;2.37;100.00;101155.50;4875501;29;20592;-78
2022/01/20 06:16:14;;;;;;;0.10;0.10;;;2.40;99.90;;;2.31;100.00;101141.22;4861149;29;20603;-78
2022/01/20 06:18:42;;;;;;;0.20;0.20;;;2.40;99.90;;;2.30;100.00;101140.31;4864157;29;20236;-79
2022/01/20 06:21:10;;;;;;;0.10;0.10;;;2.40;99.90;;;2.13;100.00;101135.91;4869806;29;20220;-81
2022/01/20 06:23:40;;;;;;;0.20;0.20;;;2.40;99.90;;;2.22;100.00;101154.66;4866005;29;20220;-82
2022/01/20 06:26:08;;;;;;;0.20;0.20;;;2.40;99.90;;;2.21;100.00;101145.94;4864448;29;20233;-83
2022/01/20 06:28:40;;;;;;;0.10;0.10;;;2.30;99.90;;;2.27;100.00;101147.09;4831928;29;20240;-79
2022/01/20 06:31:10;;;;;;;0.10;0.10;;;2.30;99.90;;;2.44;100.00;101161.94;4876726;29;20217;-79
2022/01/20 06:33:39;;;;;;;0.13;0.13;;;2.40;99.90;;;2.37;100.00;101132.00;4878441;29;20212;-80
2022/01/20 06:36:09;;;;;;;0.20;0.20;;;2.40;99.90;;;2.48;100.00;101143.00;4861492;29;20213;-81
2022/01/20 06:38:37;;;;;;;0.20;0.20;;;2.50;99.90;;;2.49;100.00;101145.69;4865146;29;20314;-79
2022/01/20 06:41:06;;;;;;;0.10;0.10;;;2.50;99.90;;;2.43;100.00;101136.63;4865291;29;20192;-80
2022/01/20 06:43:36;;;;;;;0.20;0.20;;;2.50;99.90;;;2.44;100.00;101135.81;4883245;29;20212;-83
2022/01/20 06:46:06;;;;;;;0.30;0.30;;;2.50;99.90;;;2.41;100.00;101130.44;4865878;29;20231;-83
2022/01/20 06:48:52;;;;;;;0.13;0.13;;;2.50;99.90;;;2.31;100.00;101117.72;4866976;29;20238;-79
2022/01/20 06:51:37;;;;;;;0.10;0.10;;;2.50;99.90;;;2.27;100.00;101128.81;4861006;29;20208;-80
2022/01/20 06:54:06;;;;;;;1.65;1.55;;;2.50;99.90;;;2.27;100.00;101118.38;4876969;29;20204;-79
2022/01/20 06:56:37;;;;;;;0.20;0.20;;;2.40;99.90;;;2.19;100.00;101118.88;4859548;29;20586;-79
2022/01/20 06:59:12;;;;;;;0.20;0.20;;;2.40;99.90;;;2.14;100.00;101129.88;4858544;29;20220;-79
2022/01/20 07:01:42;;;;;;;0.10;0.10;;;2.40;99.90;;;2.12;100.00;101134.13;4874205;29;20220;-79
2022/01/20 07:04:14;;;;;;;0.10;0.10;;;2.40;99.90;;;2.15;100.00;101148.22;4878991;29;20209;-79
2022/01/20 07:06:43;;;;;;;0.20;0.20;;;2.30;99.90;;;2.57;100.00;101175.72;4874355;29;20216;-79
2022/01/20 07:09:32;;;;;;;0.20;0.20;;;2.40;99.90;;;2.66;100.00;101177.03;4890974;29;20209;-79
2022/01/20 07:12:08;;;;;;;0.17;0.17;;;2.50;99.90;;;2.97;100.00;101190.88;4864139;29;20219;-79
2022/01/20 07:14:38;;;;;;;0.20;0.20;;;2.70;99.90;;;2.99;100.00;101180.50;4877524;29;20215;-79
2022/01/20 07:17:06;;;;;;;0.10;0.10;;;2.80;99.90;;;2.88;100.00;101161.66;4863355;29;20703;-80
2022/01/20 07:19:36;;;;;;;0.20;0.20;;;2.90;99.90;;;3.03;100.00;101174.63;4864023;29;20213;-80
2022/01/20 07:22:06;;;;;;;0.10;0.10;;;2.90;99.90;;;3.05;100.00;101188.66;4896113;29;20223;-80
2022/01/20 07:24:34;;;;;;;0.10;0.10;;;3.00;99.90;;;3.05;100.00;101202.63;4866970;29;20216;-80
2022/01/20 07:27:16;;;;;;;0.10;0.10;;;3.00;99.90;;;3.01;100.00;101187.59;4878838;23;20235;-79
2022/01/20 07:29:44;;;;;;;0.10;0.10;;;3.00;99.90;;;2.96;100.00;101182.97;4936447;29;20653;-79
2022/01/20 07:32:13;;;;;;;0.10;0.10;;;3.00;99.90;;;3.00;100.00;101191.03;4918630;29;20207;-80
2022/01/20 07:34:42;;;;;;;0.10;0.10;;;3.00;99.90;;;3.02;100.00;101186.78;4926369;29;20207;-80
2022/01/20 07:37:10;;;;;;;0.20;0.20;;;3.00;99.90;;;2.91;100.00;101168.75;4913889;29;20701;-80
2022/01/20 07:39:38;;;;;;;0.20;0.20;;;3.00;99.90;;;2.91;100.00;101171.38;4896764;29;20207;-81
2022/01/20 07:42:06;;;;;;;0.10;0.10;;;3.00;99.90;;;3.04;100.00;101173.78;4921434;29;20219;-81
2022/01/20 07:44:58;;;;;;;0.10;0.10;;;3.00;99.90;;;3.10;100.00;101174.09;4913325;29;20234;-81
2022/01/20 07:47:31;;;;;;;0.20;0.20;;;3.00;99.90;;;3.01;100.00;101165.78;4921869;29;20235;-80
2022/01/20 07:49:59;;;;;;;1.20;1.20;;;3.10;99.90;;;2.89;100.00;101151.28;4946696;29;20223;-81
2022/01/20 07:52:29;;;;;;;0.10;0.10;;;3.00;99.90;;;3.02;100.00;101155.44;4916197;29;20211;-80
2022/01/20 07:54:57;;;;;;;0.10;0.10;;;3.00;99.90;;;3.02;100.00;101155.44;4927019;29;20211;-81
2022/01/20 07:57:25;;;;;;;0.32;0.32;;;3.10;99.90;;;2.92;100.00;101150.56;4927265;29;20237;-80
2022/01/20 07:59:54;;;;;;;0.10;0.10;;;3.00;99.90;;;2.92;100.00;101155.78;4885502;29;20207;-81
2022/01/20 08:02:27;;;;;;;0.20;0.20;;;3.00;99.90;;;2.92;100.00;101157.50;4933828;29;20203;-81
2022/01/20 08:04:56;;;;;;;0.20;0.20;;;3.00;99.90;;;2.98;100.00;101183.94;4922785;29;20214;-81
2022/01/20 08:07:24;;;;;;;0.17;0.17;;;3.00;99.90;;;3.00;100.00;101182.28;4892578;29;20218;-81
2022/01/20 08:09:57;;;;;;;0.10;0.10;;;3.00;99.90;;;3.01;100.00;101191.94;4904645;29;20234;-81
2022/01/20 08:12:28;;;;;;;0.10;0.10;;;3.10;99.90;;;2.98;100.00;101182.22;4933886;29;20210;-80
2022/01/20 08:15:09;;;;;;;0.10;0.10;;;3.10;99.90;;;3.01;100.00;101198.06;4927237;29;20213;-81
2022/01/20 08:17:57;;;;;;;0.10;0.10;;;3.10;99.90;;;3.05;100.00;101207.84;4899129;29;20222;-80
2022/01/20 08:20:25;;;;;;;0.10;0.10;;;3.10;99.90;;;3.15;100.00;101227.50;4886051;29;20206;-82
2022/01/20 08:23:01;;;;;;;0.10;0.10;;;3.10;99.90;;;3.14;100.00;101225.72;4922684;29;20206;-81
2022/01/20 08:25:30;;;;;;;0.10;0.10;;;3.20;99.90;;;3.17;100.00;101226.75;4883103;29;20237;-81
2022/01/20 08:28:00;;;;;;;0.10;0.10;;;3.20;99.90;;;3.31;100.00;101227.47;4916899;29;20238;-81
2022/01/20 08:30:34;;;;;;;0.10;0.10;;;3.20;99.90;;;3.40;100.00;101237.50;4921363;29;20665;-81
2022/01/20 08:33:03;;;;;;;0.20;0.20;;;3.30;99.90;;;3.55;100.00;101253.94;4884840;29;20208;-81
2022/01/20 08:35:41;;;;;;;0.10;0.10;;;3.40;99.90;;;3.64;100.00;101248.28;4919656;29;20198;-81
2022/01/20 08:38:16;;;;;;;0.20;0.20;;;3.50;99.90;;;3.62;100.00;101248.19;4894297;29;20254;-81
2022/01/20 08:40:45;;;;;;;0.20;0.20;;;3.60;99.90;;;3.76;100.00;101270.72;4949111;28;20215;-80
2022/01/20 08:43:14;;;;;;;0.10;0.10;;;3.60;99.90;;;3.67;100.00;101253.66;4922747;29;20218;-80
2022/01/20 08:45:44;;;;;;;0.17;0.17;;;3.60;99.90;;;3.56;100.00;101237.44;4932491;29;20227;-80
2022/01/20 08:48:14;;;;;;;0.10;0.10;;;3.70;99.90;;;3.59;100.00;101234.06;4920719;29;20218;-82
2022/01/20 08:51:15;;;;;;;0.10;0.10;;;3.60;99.90;;;3.75;100.00;101252.31;4936021;29;20199;-82
2022/01/20 08:54:02;;;;;;;0.20;0.20;;;3.70;99.90;;;3.81;100.00;101252.63;4915300;29;20229;-81
2022/01/20 08:56:34;;;;;;;0.10;0.10;;;3.70;99.90;;;3.88;100.00;101259.94;4911393;29;20219;-81
2022/01/20 08:59:07;;;;;;;0.10;0.10;;;3.80;99.90;;;3.93;100.00;101262.81;4910483;29;20236;-83
2022/01/20 09:01:38;;;;;;;0.10;0.10;;;3.90;99.90;;;4.01;100.00;101265.00;4904757;29;20212;-82
2022/01/20 09:04:07;;;;;;;0.10;0.10;;;3.90;99.90;;;3.95;100.00;101262.06;4917694;29;20218;-81
2022/01/20 09:06:41;;;;;;;0.10;0.10;;;3.90;99.90;;;4.06;100.00;101266.09;4920176;29;20222;-81
2022/01/20 09:09:20;;;;;;;0.17;0.17;;;4.00;99.90;;;4.08;100.00;101256.59;4921567;29;20203;-82
2022/01/20 09:12:02;;;;;;;0.20;0.20;;;4.20;99.90;;;4.15;100.00;101253.47;4901183;29;20207;-82
2022/01/20 09:17:20;;;;;;;0.20;0.20;;;4.20;99.90;;;4.24;100.00;101247.75;4939324;29;20229;-81
2022/01/20 09:19:48;;;;;;;0.10;0.10;;;4.20;99.90;;;4.27;100.00;101241.78;4912312;29;20221;-82
2022/01/20 09:22:19;;;;;;;0.10;0.10;;;4.20;99.90;;;4.34;100.00;101233.38;4914456;29;20226;-81
2022/01/20 09:24:48;;;;;;;0.10;0.10;;;4.30;99.90;;;4.32;100.00;101228.06;4919634;29;20210;-81
2022/01/20 09:27:18;;;;;;;0.20;0.20;;;4.30;99.90;;;4.47;100.00;101225.25;4923614;29;20231;-83
2022/01/20 09:29:47;;;;;;;0.10;0.10;;;4.30;99.90;;;4.47;100.00;101215.69;4905973;29;20214;-81
2022/01/20 09:32:19;;;;;;;0.10;0.10;;;4.40;99.90;;;4.33;100.00;101198.44;4889501;29;20207;-84
2022/01/20 09:34:48;;;;;;;0.10;0.10;;;4.40;99.90;;;4.47;100.00;101207.84;4934519;28;20218;-80
2022/01/20 09:37:17;;;;;;;0.20;0.20;;;4.40;99.90;;;4.58;100.00;101221.41;4915692;29;20238;-81
2022/01/20 09:39:49;;;;;;;0.10;0.10;;;4.50;99.90;;;4.66;100.00;101232.25;4887612;29;20199;-82
2022/01/20 09:42:42;;;;;;;0.20;0.20;;;4.50;99.90;;;4.86;100.00;101234.03;4927354;29;20215;-81
2022/01/20 09:45:13;;;;;;;0.10;0.10;;;4.60;99.90;;;4.96;100.00;101236.22;4904240;29;20218;-81
2022/01/20 09:47:46;;;;;;;0.10;0.10;;;4.80;99.90;;;4.98;100.00;101238.91;4927313;29;20235;-81
2022/01/20 09:50:34;;;;;;;0.10;0.10;;;4.80;99.90;;;5.12;100.00;101243.03;4938843;29;20211;-83
2022/01/20 09:53:30;;;;;;;0.20;0.20;;;5.00;99.90;;;5.13;100.00;101253.59;4919655;29;20203;-82
2022/01/20 09:56:19;;;;;;;0.20;0.20;;;5.00;99.90;;;5.18;100.00;101263.38;4928189;29;20206;-85
2022/01/20 09:58:50;;;;;;;0.10;0.10;;;5.10;99.90;;;5.14;100.00;101234.41;4927454;28;20226;-81
2022/01/20 10:01:41;;;;;;;0.20;0.20;;;5.20;99.90;;;5.11;100.00;101236.00;4930824;29;20207;-82
2022/01/20 10:04:29;;;;;;;0.10;0.10;;;5.20;99.90;;;5.13;100.00;101224.75;4937974;29;20270;-82
2022/01/20 10:07:00;;;;;;;0.10;0.10;;;5.20;99.90;;;5.15;100.00;101244.06;4897758;29;20230;-82
2022/01/20 10:09:42;;;;;;;0.10;0.10;;;5.20;99.90;;;5.18;100.00;101271.25;4956892;28;20203;-85
2022/01/20 10:12:39;;;;;;;0.20;0.20;;;5.30;99.90;;;5.11;100.00;101278.84;4893016;29;20209;-81
2022/01/20 10:15:55;;;;;;;0.13;0.13;;;5.30;99.90;;;4.77;100.00;101259.81;4906143;29;20207;-83
2022/01/20 10:18:57;;;;;;;0.10;0.10;;;5.20;99.90;;;4.18;100.00;101208.22;4923829;29;20238;-82
2022/01/20 10:21:52;;;;;;;0.10;0.10;;;4.80;99.90;;;4.09;100.00;101233.94;4921918;29;20214;-81
2022/01/20 10:24:27;;;;;;;0.10;0.10;;;4.50;99.90;;;4.05;100.00;101237.25;4930373;29;20214;-80
2022/01/20 10:27:15;;;;;;;0.13;0.13;;;4.40;99.90;;;3.99;100.00;101229.09;4928048;29;20238;-82
2022/01/20 10:30:03;;;;;;;0.20;0.20;;;4.40;99.90;;;3.98;100.00;101246.53;4908473;29;20207;-81
2022/01/20 10:32:49;;;;;;;0.10;0.10;;;4.30;99.90;;;3.90;100.00;101241.72;4918302;29;20214;-81
2022/01/20 10:35:24;;;;;;;0.10;0.10;;;4.20;99.90;;;4.02;100.00;101284.22;4921810;29;20215;-82
2022/01/20 10:38:13;;;;;;;0.17;0.17;;;4.20;99.90;;;4.00;100.00;101276.28;4935881;28;20226;-81
2022/01/20 10:40:59;;;;;;;0.20;0.20;;;4.20;99.90;;;3.95;100.00;101280.41;4919557;29;20673;-85
2022/01/20 10:43:35;;;;;;;0.10;0.10;;;4.20;99.90;;;3.91;100.00;101278.44;4904026;29;20202;-81
2022/01/20 10:46:20;;;;;;;0.10;0.10;;;4.20;99.90;;;4.12;100.00;101329.22;4909929;29;20214;-80
2022/01/20 10:49:01;;;;;;;0.10;0.10;;;4.20;99.90;;;4.18;100.00;101316.44;4925743;29;20233;-82
2022/01/20 10:51:43;;;;;;;0.10;0.10;;;4.30;99.90;;;4.22;100.00;101313.97;4898864;29;20207;-83
2022/01/20 10:54:13;;;;;;;0.10;0.10;;;4.40;99.90;;;4.48;100.00;101342.31;4924417;29;20693;-81
2022/01/20 10:56:50;;;;;;;0.10;0.10;;;4.50;99.90;;;4.86;100.00;101374.66;4904512;29;20211;-83
2022/01/20 10:59:20;;;;;;;0.20;0.20;;;4.70;99.90;;;4.85;100.00;101331.81;4937321;28;20207;-82
2022/01/20 11:02:20;;;;;;;0.10;0.10;;;4.90;99.90;;;5.09;100.00;101332.06;4921880;29;20206;-81
2022/01/20 11:04:51;;;;;;;0.10;0.10;;;5.00;99.90;;;5.04;100.00;101284.66;4902544;29;20673;-84
2022/01/20 11:07:21;;;;;;;0.20;0.20;;;5.10;99.90;;;4.95;100.00;101242.31;4900823;29;20245;-81
2022/01/20 11:09:59;;;;;;;0.20;0.20;;;5.10;99.90;;;5.24;100.00;101277.69;4897937;29;20206;-83
2022/01/20 11:12:40;;;;;;;0.20;0.20;;;5.30;99.90;;;5.65;100.00;101310.97;4922160;29;20214;-83
2022/01/20 11:15:29;;;;;;;0.10;0.10;;;5.50;99.90;;;5.72;100.00;101275.38;4918353;29;20207;-82
2022/01/20 11:17:59;;;;;;;0.17;0.17;;;5.70;99.90;;;5.50;100.00;101214.97;4882833;29;20528;-81
2022/01/20 11:20:47;;;;;;;0.10;0.10;;;5.80;99.90;;;5.14;100.00;101152.25;4902365;29;20210;-80
2022/01/20 11:23:18;;;;;;;0.10;0.10;;;5.60;99.90;;;4.93;100.00;101104.16;4929576;29;20211;-82
2022/01/20 11:26:06;;;;;;;0.20;0.20;;;5.40;99.90;;;4.88;100.00;101105.69;4903307;29;20222;-82
2022/01/20 11:29:03;;;;;;;0.10;0.10;;;5.30;99.90;;;4.75;100.00;101080.69;4921450;29;20242;-82
2022/01/20 11:31:52;;;;;;;0.10;0.10;;;5.10;99.90;;;4.90;100.00;101104.00;4919299;29;20215;-81
2022/01/20 11:35:03;;;;;;;0.10;0.10;;;5.20;99.90;;;4.93;100.00;101104.16;4896113;29;20588;-82
2022/01/20 11:37:41;;;;;;;0.10;0.10;;;5.10;99.90;;;4.72;100.00;101064.81;4935121;29;20229;-82
2022/01/20 11:40:23;;;;;;;0.10;0.10;;;5.10;99.90;;;4.73;100.00;101066.63;4925157;29;20194;-82
2022/01/20 11:43:06;;;;;;;0.20;0.20;;;5.10;99.90;;;4.74;100.00;101074.53;4927833;29;20203;-82
2022/01/20 11:45:38;;;;;;;0.10;0.10;;;5.10;99.90;;;5.01;100.00;101105.38;4907842;29;20225;-82
2022/01/20 11:48:16;;;;;;;8.57;2.75;;;5.10;99.90;;;5.07;100.00;101093.41;4945274;28;20253;-83
2022/01/20 11:50:46;;;;;;;0.10;0.10;;;5.20;99.90;;;5.09;100.00;101085.59;4940532;29;20211;-81
2022/01/20 11:53:19;;;;;;;0.20;0.20;;;5.30;99.90;;;4.90;100.00;101014.91;4926264;29;20211;-83